Time;durP1;ratioP1;P1;durP2;ratioP2;P2;SDS_P1;SDS_P2;PMS_P1;PMS_P2;Temp;Humidity;BMP_temperature;BMP_pressure;BME280_temperature;BME280_humidity;BME280_pressure;Samples;Min_cycle;Max_cycle;Signal;HPM_P1;HPM_P2
2022/06/22 05:02:31;;;;;;;9.25;5.82;;;22.50;91.60;;;;;;5510118;23;20055;-77
2022/06/22 05:05:05;;;;;;;7.72;5.30;;;22.60;91.00;;;;;;4914512;29;20042;-78
2022/06/22 05:07:57;;;;;;;8.32;5.40;;;22.60;90.70;;;;;;4927690;29;20099;-78
2022/06/22 05:10:28;;;;;;;8.93;5.85;;;22.70;90.80;;;;;;4919083;29;20209;-78
2022/06/22 05:13:01;;;;;;;8.45;5.18;;;22.80;90.80;;;;;;4930473;29;20055;-78
2022/06/22 05:15:36;;;;;;;10.30;6.00;;;22.80;90.40;;;;;;4946181;29;20048;-78
2022/06/22 05:18:09;;;;;;;9.57;5.50;;;22.90;90.90;;;;;;4929736;29;20028;-77
2022/06/22 05:21:11;;;;;;;11.23;6.20;;;22.90;91.10;;;;;;4927288;29;20036;-76
2022/06/22 05:23:40;;;;;;;7.22;5.18;;;23.00;91.10;;;;;;4839248;29;20033;-78
2022/06/22 05:26:08;;;;;;;9.65;5.93;;;23.10;90.50;;;;;;4916059;29;20060;-76
2022/06/22 05:28:41;;;;;;;8.20;5.35;;;23.30;90.00;;;;;;4946791;29;20032;-78
2022/06/22 05:31:22;;;;;;;11.02;5.68;;;23.40;88.50;;;;;;4946251;29;20046;-77
2022/06/22 05:33:51;;;;;;;10.20;5.60;;;23.50;88.60;;;;;;4930013;29;20063;-77
2022/06/22 05:36:21;;;;;;;8.95;5.57;;;23.60;88.20;;;;;;4942325;29;20036;-78
2022/06/22 05:38:50;;;;;;;6.95;4.65;;;23.70;88.80;;;;;;4929961;29;20242;-77
2022/06/22 05:41:20;;;;;;;8.45;5.40;;;23.90;87.50;;;;;;4946689;29;20039;-77
2022/06/22 05:43:58;;;;;;;7.90;5.88;;;24.00;88.10;;;;;;4947029;29;20079;-76
2022/06/22 05:46:33;;;;;;;8.68;5.60;;;24.10;89.00;;;;;;4928608;29;20059;-78
2022/06/22 05:48:59;;;;;;;8.02;5.78;;;24.20;88.20;;;;;;4946773;29;20070;-80
2022/06/22 05:51:34;;;;;;;9.40;6.10;;;24.10;88.10;;;;;;4945963;29;20127;-78
2022/06/22 05:54:19;;;;;;;8.70;6.22;;;24.00;88.60;;;;;;4946270;29;20032;-78
2022/06/22 05:57:11;;;;;;;11.52;6.70;;;24.00;88.40;;;;;;4942165;29;20032;-78
2022/06/22 05:59:48;;;;;;;10.75;6.78;;;24.00;88.50;;;;;;4925880;29;20337;-79
2022/06/22 06:02:29;;;;;;;8.65;6.35;;;24.00;89.20;;;;;;4910862;29;20298;-78
2022/06/22 06:04:58;;;;;;;9.07;6.40;;;23.80;89.10;;;;;;4945198;29;20031;-76
2022/06/22 06:07:24;;;;;;;9.23;6.35;;;24.00;88.40;;;;;;4928372;29;20103;-78
2022/06/22 06:09:50;;;;;;;8.63;6.10;;;24.10;88.80;;;;;;4899838;29;20020;-75
2022/06/22 06:12:25;;;;;;;9.60;6.68;;;24.10;88.60;;;;;;4927432;29;20023;-77
2022/06/22 06:14:52;;;;;;;8.30;6.68;;;24.20;88.70;;;;;;4920213;29;20384;-78
2022/06/22 06:17:27;;;;;;;10.13;7.20;;;24.10;87.90;;;;;;4909788;29;20044;-77
2022/06/22 06:19:54;;;;;;;9.27;7.00;;;24.10;87.00;;;;;;4932896;29;20540;-78
2022/06/22 06:22:22;;;;;;;8.07;5.85;;;24.20;87.80;;;;;;4936889;29;20034;-77
2022/06/22 06:28:02;;;;;;;15.93;7.13;;;24.40;87.10;;;;;;4931084;29;20043;-77
2022/06/22 06:30:53;;;;;;;9.27;6.68;;;24.40;87.50;;;;;;4926494;29;20043;-77
2022/06/22 06:33:35;;;;;;;9.27;6.80;;;24.40;87.30;;;;;;4937508;29;20039;-77
2022/06/22 06:36:22;;;;;;;12.43;6.10;;;24.40;86.80;;;;;;4944363;29;20059;-78
2022/06/22 06:39:02;;;;;;;10.95;5.70;;;24.40;87.30;;;;;;4944179;29;20328;-78
2022/06/22 06:42:03;;;;;;;10.68;6.43;;;24.40;87.30;;;;;;4943777;29;20348;-77
2022/06/22 06:44:37;;;;;;;10.82;6.68;;;24.40;87.40;;;;;;4922392;29;20051;-77
2022/06/22 06:47:10;;;;;;;11.60;6.85;;;24.30;87.20;;;;;;4934508;29;20048;-78
2022/06/22 06:49:53;;;;;;;9.85;5.97;;;24.30;87.30;;;;;;4910309;29;20039;-77
2022/06/22 06:52:56;;;;;;;8.55;6.15;;;24.20;87.00;;;;;;4943458;29;20028;-77
2022/06/22 06:55:34;;;;;;;9.85;6.50;;;24.10;88.00;;;;;;4928933;29;20035;-77
2022/06/22 06:58:14;;;;;;;13.30;7.32;;;24.10;88.50;;;;;;4925050;29;20024;-76
2022/06/22 07:00:41;;;;;;;11.65;6.40;;;24.10;89.50;;;;;;4924329;29;20048;-76
2022/06/22 07:06:15;;;;;;;11.18;6.60;;;24.00;89.70;;;;;;4933382;29;20052;-76
2022/06/22 07:12:39;;;;;;;9.52;5.65;;;23.90;90.70;;;;;;4907995;29;20043;-77
2022/06/22 07:15:21;;;;;;;9.05;5.78;;;23.70;90.40;;;;;;4915337;29;20110;-78
2022/06/22 07:17:50;;;;;;;12.73;6.80;;;23.60;91.00;;;;;;4892427;29;20213;-78
2022/06/22 07:20:21;;;;;;;9.27;6.63;;;23.50;90.70;;;;;;4932999;29;20032;-78
2022/06/22 07:23:05;;;;;;;17.85;7.45;;;23.50;91.30;;;;;;4892656;29;20035;-77
2022/06/22 07:25:38;;;;;;;11.15;7.35;;;23.50;91.50;;;;;;4924514;29;20028;-79
2022/06/22 07:28:25;;;;;;;13.00;7.57;;;23.50;92.10;;;;;;4924481;29;20233;-79
2022/06/22 07:31:03;;;;;;;12.23;6.47;;;23.50;91.40;;;;;;4923542;29;20040;-78
2022/06/22 07:33:44;;;;;;;11.52;7.30;;;23.50;91.20;;;;;;4907283;29;20202;-77
2022/06/22 07:36:29;;;;;;;11.30;6.82;;;23.40;91.20;;;;;;4927266;29;20032;-79
2022/06/22 07:39:27;;;;;;;8.48;6.80;;;23.30;91.50;;;;;;4913030;29;20207;-78
2022/06/22 07:42:21;;;;;;;10.30;7.20;;;23.30;91.40;;;;;;4928380;29;20031;-78
2022/06/22 07:45:12;;;;;;;10.50;6.78;;;23.20;91.60;;;;;;4896771;29;20382;-78
2022/06/22 07:48:04;;;;;;;10.25;7.05;;;23.20;91.90;;;;;;4927393;29;20035;-78
2022/06/22 07:50:52;;;;;;;10.73;6.63;;;23.30;92.00;;;;;;4927053;29;20050;-78
2022/06/22 07:53:22;;;;;;;11.07;6.63;;;23.20;92.30;;;;;;4895439;29;20218;-79
2022/06/22 07:56:06;;;;;;;7.85;5.95;;;23.20;92.40;;;;;;4946927;29;20397;-78
2022/06/22 07:58:45;;;;;;;10.07;6.72;;;23.20;91.80;;;;;;4947651;29;20056;-77
2022/06/22 08:01:16;;;;;;;10.10;6.28;;;23.20;91.60;;;;;;4950992;29;20090;-76
2022/06/22 08:03:45;;;;;;;14.20;6.25;;;23.30;91.20;;;;;;4954492;29;20044;-76
2022/06/22 08:06:21;;;;;;;10.02;5.53;;;23.60;90.70;;;;;;4949220;29;20032;-78
2022/06/22 08:09:04;;;;;;;9.15;5.82;;;23.80;90.10;;;;;;4940656;29;20032;-77
2022/06/22 08:12:11;;;;;;;10.57;5.93;;;24.10;89.40;;;;;;4933508;29;20040;-77
2022/06/22 08:14:46;;;;;;;8.63;5.95;;;24.20;86.90;;;;;;4896923;29;20047;-77
2022/06/22 08:17:25;;;;;;;7.78;5.50;;;24.30;87.10;;;;;;4893305;29;20040;-77
2022/06/22 08:19:54;;;;;;;;;;;24.50;84.50;;;;;;4895946;29;20079;-77
2022/06/22 08:22:22;;;;;;;10.77;5.32;;;24.70;84.10;;;;;;4918960;29;19946;-78
2022/06/22 08:24:51;;;;;;;7.88;4.90;;;24.70;82.90;;;;;;4928144;29;20070;-78
2022/06/22 08:27:20;;;;;;;7.13;5.20;;;24.70;82.70;;;;;;4910713;29;20166;-77
2022/06/22 08:29:49;;;;;;;8.38;5.65;;;24.70;82.50;;;;;;4910610;29;20201;-77
2022/06/22 08:32:21;;;;;;;8.20;5.20;;;24.70;82.20;;;;;;4910402;29;20047;-79
2022/06/22 08:34:55;;;;;;;8.02;4.93;;;24.50;82.70;;;;;;4926592;29;20151;-79
2022/06/22 08:37:33;;;;;;;11.80;5.07;;;24.60;82.10;;;;;;4926500;29;20032;-79
2022/06/22 08:40:20;;;;;;;9.38;4.90;;;24.60;82.80;;;;;;4910355;29;20383;-78
2022/06/22 08:43:14;;;;;;;8.10;5.75;;;24.60;83.40;;;;;;4910209;29;20028;-78
2022/06/22 08:45:49;;;;;;;7.60;5.25;;;24.70;84.60;;;;;;4925614;29;20040;-78
2022/06/22 08:48:40;;;;;;;6.85;5.20;;;24.70;83.40;;;;;;4890327;29;20238;-78
2022/06/22 08:51:12;;;;;;;9.73;5.63;;;24.60;83.40;;;;;;4872526;29;20029;-79
2022/06/22 08:54:00;;;;;;;7.47;5.93;;;24.60;82.80;;;;;;4888359;29;20028;-79
2022/06/22 08:56:59;;;;;;;9.73;5.78;;;24.60;83.60;;;;;;4888867;29;20052;-79
2022/06/22 08:59:36;;;;;;;7.93;4.63;;;24.50;84.00;;;;;;4888798;29;20224;-79
2022/06/22 09:02:20;;;;;;;9.57;5.95;;;24.60;84.00;;;;;;4886922;29;20290;-78
2022/06/22 09:05:19;;;;;;;8.52;5.68;;;24.60;83.80;;;;;;4905525;29;20052;-77
2022/06/22 09:07:57;;;;;;;9.70;5.50;;;24.80;83.70;;;;;;4857285;29;20148;-76
2022/06/22 09:10:53;;;;;;;9.43;5.53;;;24.90;84.10;;;;;;4898887;29;20060;-78
2022/06/22 09:13:41;;;;;;;8.82;5.57;;;25.10;83.50;;;;;;4924863;29;20160;-79
2022/06/22 09:16:22;;;;;;;8.23;5.47;;;25.30;82.00;;;;;;4907530;29;20060;-79
2022/06/22 09:19:16;;;;;;;7.97;5.22;;;25.50;81.50;;;;;;4907899;29;20036;-78
2022/06/22 09:22:14;;;;;;;6.88;5.30;;;25.70;81.50;;;;;;4881317;29;20033;-77
2022/06/22 09:24:46;;;;;;;7.65;5.60;;;25.90;80.40;;;;;;4905342;29;20262;-78
2022/06/22 09:27:19;;;;;;;8.93;5.70;;;26.10;79.70;;;;;;4888881;29;20040;-78
2022/06/22 09:30:00;;;;;;;10.38;5.30;;;26.10;80.00;;;;;;4888207;29;20074;-79
2022/06/22 09:32:29;;;;;;;7.18;5.00;;;26.20;79.60;;;;;;4871846;29;20360;-77
2022/06/22 09:35:03;;;;;;;7.18;5.07;;;26.20;79.60;;;;;;4873228;29;20036;-80
2022/06/22 09:37:47;;;;;;;7.30;4.88;;;26.30;78.10;;;;;;4887909;29;20040;-77
2022/06/22 09:40:20;;;;;;;8.68;5.07;;;26.30;77.00;;;;;;4889116;29;20045;-78
2022/06/22 09:43:11;;;;;;;6.57;5.05;;;26.10;77.60;;;;;;4888754;29;20401;-77
2022/06/22 09:46:09;;;;;;;10.60;5.15;;;25.90;76.60;;;;;;4904842;29;20365;-79
2022/06/22 09:48:47;;;;;;;11.02;5.50;;;25.90;77.10;;;;;;4904723;29;20055;-79
2022/06/22 09:51:27;;;;;;;12.20;5.13;;;25.80;76.60;;;;;;4888204;29;20243;-77
2022/06/22 09:56:19;;;;;;;7.28;5.15;;;25.80;78.40;;;;;;4911981;29;20024;-78
2022/06/22 09:57:27;;;;;;;8.38;5.47;;;25.70;80.40;;;;;;4929028;29;20043;-79
2022/06/22 10:00:04;;;;;;;9.77;5.38;;;25.70;79.40;;;;;;4834327;29;20061;-81
2022/06/22 10:03:22;;;;;;;9.00;5.55;;;25.50;79.90;;;;;;4833606;29;20048;-76
2022/06/22 10:06:13;;;;;;;8.43;5.40;;;25.40;81.50;;;;;;4834536;29;20038;-79
2022/06/22 10:09:03;;;;;;;7.85;5.57;;;25.30;82.20;;;;;;4833589;29;20098;-77
2022/06/22 10:12:02;;;;;;;9.48;6.05;;;25.20;81.50;;;;;;4800357;29;20038;-78
2022/06/22 10:14:54;;;;;;;8.35;6.10;;;25.10;81.60;;;;;;4814857;29;20138;-78
2022/06/22 10:17:48;;;;;;;12.25;5.40;;;24.90;80.90;;;;;;4784787;29;20042;-79
2022/06/22 10:20:37;;;;;;;9.10;6.10;;;24.70;82.00;;;;;;4816336;29;20062;-77
2022/06/22 10:23:47;;;;;;;9.70;5.78;;;24.60;82.20;;;;;;4816205;29;20193;-78
2022/06/22 10:26:17;;;;;;;9.90;6.05;;;24.60;82.60;;;;;;4814312;29;20142;-78
2022/06/22 10:28:58;;;;;;;9.27;5.43;;;24.40;82.80;;;;;;4814648;29;20436;-76
2022/06/22 10:32:01;;;;;;;12.02;6.13;;;24.40;82.30;;;;;;4802526;29;20110;-78
2022/06/22 10:35:02;;;;;;;9.15;5.85;;;24.40;83.30;;;;;;4812799;29;20047;-77
2022/06/22 10:37:54;;;;;;;9.50;5.80;;;24.40;84.10;;;;;;4885354;29;20055;-78
2022/06/22 10:47:11;;;;;;;9.88;5.93;;;24.80;86.60;;;;;;4881949;29;20041;-78
2022/06/22 10:50:04;;;;;;;8.65;6.30;;;24.70;88.60;;;;;;4862191;29;20064;-77
2022/06/22 10:52:36;;;;;;;11.15;7.22;;;24.60;90.70;;;;;;4889113;29;20037;-77
2022/06/22 10:55:26;;;;;;;9.10;6.60;;;24.60;91.80;;;;;;4873640;29;20060;-78
2022/06/22 11:01:27;;;;;;;9.70;6.18;;;23.80;93.10;;;;;;4888927;29;20184;-77
2022/06/22 11:04:26;;;;;;;;;;;;;;;;;;;;;
2022/06/22 11:07:20;;;;;;;8.55;5.28;;;23.20;93.40;;;;;;4876039;29;20138;-78
2022/06/22 11:10:21;;;;;;;7.85;5.10;;;23.20;93.60;;;;;;4853711;29;20316;-80
2022/06/22 11:13:05;;;;;;;8.68;5.43;;;23.40;92.80;;;;;;4852886;29;20037;-79
2022/06/22 11:15:53;;;;;;;7.18;5.28;;;23.60;91.80;;;;;;4868326;29;20154;-78
2022/06/22 11:18:31;;;;;;;8.43;5.47;;;23.70;90.70;;;;;;4877328;29;20060;-79
2022/06/22 11:21:31;;;;;;;6.78;4.88;;;23.70;90.00;;;;;;4895326;29;20056;-78
2022/06/22 11:24:13;;;;;;;8.88;5.47;;;23.70;90.40;;;;;;4877871;29;20025;-81
2022/06/22 11:34:32;;;;;;;8.57;6.47;;;23.90;91.70;;;;;;4790982;29;20236;-79
2022/06/22 11:37:31;;;;;;;7.15;5.95;;;24.00;91.20;;;;;;4819854;29;20239;-79
2022/06/22 11:40:35;;;;;;;9.13;6.65;;;24.00;91.30;;;;;;4908106;29;20048;-80
2022/06/22 11:43:25;;;;;;;10.40;7.10;;;24.10;91.10;;;;;;4907852;29;20039;-79
2022/06/22 11:46:01;;;;;;;12.02;8.20;;;24.10;91.50;;;;;;4907969;29;20033;-78
2022/06/22 11:49:03;;;;;;;11.52;7.85;;;24.10;91.50;;;;;;4908226;29;20100;-79
2022/06/22 11:55:22;;;;;;;10.65;7.22;;;24.20;91.90;;;;;;4909409;29;20028;-79
2022/06/22 11:58:06;;;;;;;10.25;6.97;;;24.20;91.90;;;;;;4907602;29;20219;-81
2022/06/22 12:00:51;;;;;;;10.20;7.15;;;24.20;92.60;;;;;;4906812;29;20045;-77
2022/06/22 12:04:00;;;;;;;8.85;6.93;;;24.30;91.80;;;;;;4917505;29;20067;-80
2022/06/22 12:07:49;;;;;;;9.25;7.15;;;24.40;91.50;;;;;;4926286;29;20198;-78
2022/06/22 12:10:34;;;;;;;9.48;7.15;;;24.70;91.50;;;;;;4809033;29;20065;-79
2022/06/22 12:13:36;;;;;;;8.68;6.57;;;24.90;90.80;;;;;;4841953;29;20090;-79
2022/06/22 12:16:46;;;;;;;9.73;6.60;;;25.00;90.70;;;;;;4833638;29;20098;-80
2022/06/22 12:20:05;;;;;;;8.75;6.43;;;25.10;90.10;;;;;;4743197;30;20055;-79
2022/06/22 12:23:10;;;;;;;7.97;5.03;;;25.30;90.40;;;;;;4790053;29;20059;-80
2022/06/22 12:26:03;;;;;;;10.90;6.30;;;25.60;88.90;;;;;;4800816;29;20099;-80
2022/06/22 12:28:45;;;;;;;8.45;5.57;;;25.70;88.40;;;;;;4792933;30;20052;-81
2022/06/22 12:31:24;;;;;;;8.90;5.88;;;25.70;88.40;;;;;;4780935;30;20050;-80
2022/06/22 12:33:59;;;;;;;8.30;6.75;;;25.90;88.00;;;;;;4766486;30;20117;-80
2022/06/22 12:36:33;;;;;;;10.27;6.70;;;25.90;88.30;;;;;;4767108;30;20039;-80
2022/06/22 12:39:13;;;;;;;8.55;6.60;;;25.90;88.60;;;;;;4795464;30;20067;-80
2022/06/22 12:42:27;;;;;;;9.55;5.78;;;25.90;88.60;;;;;;4782740;30;20099;-79
2022/06/22 12:45:32;;;;;;;10.05;6.97;;;25.90;87.70;;;;;;4763026;30;20067;-79
2022/06/22 12:48:17;;;;;;;9.32;6.38;;;25.70;89.60;;;;;;4761960;30;20040;-79
2022/06/22 12:51:15;;;;;;;11.65;6.15;;;25.90;89.00;;;;;;4792122;30;20054;-80
2022/06/22 12:54:01;;;;;;;8.18;5.68;;;26.10;88.20;;;;;;4790043;30;20047;-79
2022/06/22 12:56:38;;;;;;;8.50;5.85;;;26.10;87.90;;;;;;4867087;29;20076;-79
2022/06/22 12:59:20;;;;;;;10.70;6.35;;;26.10;87.80;;;;;;4908517;29;20048;-79
2022/06/22 13:01:47;;;;;;;8.77;5.55;;;26.00;88.80;;;;;;4933394;29;20111;-79
2022/06/22 13:04:30;;;;;;;9.35;5.53;;;25.90;89.30;;;;;;4917670;29;20062;-79
2022/06/22 13:07:19;;;;;;;10.02;5.88;;;26.10;89.20;;;;;;4929031;29;20028;-79
2022/06/22 13:09:46;;;;;;;;;;;26.10;89.50;;;;;;4936275;29;20023;-79
2022/06/22 13:12:33;;;;;;;8.50;5.22;;;26.20;89.30;;;;;;4933480;29;19984;-79
2022/06/22 13:15:11;;;;;;;14.17;5.60;;;26.40;89.70;;;;;;4950380;29;20032;-80
2022/06/22 13:18:20;;;;;;;9.68;5.85;;;26.50;88.10;;;;;;4932401;29;20474;-80
2022/06/22 13:20:59;;;;;;;10.57;6.40;;;26.50;87.80;;;;;;4913697;29;20269;-79
2022/06/22 13:23:43;;;;;;;9.88;5.82;;;26.50;88.00;;;;;;4914709;29;20032;-80
2022/06/22 13:26:27;;;;;;;10.95;6.00;;;26.50;88.70;;;;;;4914084;29;20035;-80
2022/06/22 13:29:14;;;;;;;9.63;5.30;;;26.50;89.20;;;;;;4917216;29;20120;-80
2022/06/22 13:31:43;;;;;;;9.70;3.65;;;26.20;90.50;;;;;;4915360;29;20051;-79
2022/06/22 13:34:32;;;;;;;;;;;25.80;89.80;;;;;;4915627;29;20044;-79
2022/06/22 13:37:27;;;;;;;12.05;3.88;;;25.90;90.20;;;;;;4930568;29;19906;-79
2022/06/22 13:40:12;;;;;;;9.15;3.92;;;25.70;90.90;;;;;;4889698;29;20044;-79
2022/06/22 13:42:57;;;;;;;8.75;4.03;;;25.40;90.80;;;;;;4875075;29;20108;-81
2022/06/22 13:45:44;;;;;;;12.48;3.97;;;25.60;90.50;;;;;;4874040;29;20165;-79
2022/06/22 13:48:21;;;;;;;8.15;3.92;;;25.80;90.20;;;;;;4884273;29;20037;-79
2022/06/22 13:51:24;;;;;;;12.73;4.72;;;25.90;89.60;;;;;;4889653;29;20036;-79
2022/06/22 13:53:59;;;;;;;8.10;4.20;;;26.20;88.10;;;;;;4875210;29;20088;-78
2022/06/22 13:56:30;;;;;;;12.52;5.03;;;26.50;87.40;;;;;;4859250;29;20031;-79
2022/06/22 13:59:01;;;;;;;9.35;4.05;;;26.80;87.30;;;;;;4889584;29;20053;-80
2022/06/22 14:01:35;;;;;;;11.65;4.50;;;26.90;87.10;;;;;;4890053;29;20100;-78
2022/06/22 14:04:07;;;;;;;9.20;4.05;;;27.10;84.50;;;;;;4890203;29;20052;-78
2022/06/22 14:06:53;;;;;;;12.13;4.00;;;27.80;83.30;;;;;;4897342;29;20045;-78
2022/06/22 14:09:27;;;;;;;11.63;4.15;;;28.50;81.40;;;;;;4908175;29;20123;-78
2022/06/22 14:12:08;;;;;;;10.95;4.45;;;28.60;80.80;;;;;;4909837;29;20168;-79
2022/06/22 14:15:01;;;;;;;10.05;3.42;;;28.80;78.90;;;;;;4911755;29;20219;-78
2022/06/22 14:17:43;;;;;;;8.45;3.67;;;29.20;78.30;;;;;;4927115;29;20044;-78
2022/06/22 14:20:25;;;;;;;12.75;4.38;;;29.60;77.70;;;;;;4927300;29;20044;-78
2022/06/22 14:23:01;;;;;;;9.05;3.63;;;29.70;77.10;;;;;;4909236;29;20301;-78
2022/06/22 14:25:33;;;;;;;10.48;3.50;;;29.40;76.70;;;;;;4910621;29;20286;-79
2022/06/22 14:28:31;;;;;;;10.90;3.40;;;29.60;75.50;;;;;;4911186;29;20326;-78
2022/06/22 14:31:00;;;;;;;12.88;4.10;;;29.20;75.90;;;;;;4909764;29;20040;-77
2022/06/22 14:33:43;;;;;;;9.80;3.17;;;29.40;75.00;;;;;;4910847;29;20020;-78
2022/06/22 14:36:38;;;;;;;10.35;3.30;;;30.00;74.50;;;;;;4927450;29;20059;-77
2022/06/22 14:39:23;;;;;;;8.82;3.33;;;31.10;72.60;;;;;;4910583;29;20088;-79
2022/06/22 14:41:56;;;;;;;9.32;3.13;;;32.10;70.30;;;;;;4926630;29;20036;-77
2022/06/22 14:44:38;;;;;;;12.63;3.78;;;32.50;68.60;;;;;;4910101;29;20266;-77
2022/06/22 14:47:23;;;;;;;10.68;3.15;;;32.20;68.50;;;;;;4895711;29;20043;-77
2022/06/22 14:50:24;;;;;;;11.10;3.03;;;31.10;69.90;;;;;;4911568;29;20044;-77
2022/06/22 14:53:30;;;;;;;10.80;3.63;;;30.40;71.50;;;;;;4926968;29;20092;-77
2022/06/22 14:56:01;;;;;;;10.73;3.42;;;29.70;73.40;;;;;;4868325;29;20052;-77
2022/06/22 14:58:27;;;;;;;9.80;3.45;;;29.00;75.80;;;;;;4916713;29;20052;-78
2022/06/22 15:01:11;;;;;;;10.93;3.17;;;28.50;76.70;;;;;;4925195;29;20048;-78
2022/06/22 15:03:36;;;;;;;10.48;3.33;;;28.10;78.10;;;;;;4927990;29;20051;-79
2022/06/22 15:06:19;;;;;;;12.55;3.63;;;27.60;78.80;;;;;;4910039;29;20044;-78
2022/06/22 15:09:00;;;;;;;12.93;3.80;;;27.20;81.20;;;;;;4928377;29;20233;-78
2022/06/22 15:14:30;;;;;;;11.90;3.30;;;26.70;83.00;;;;;;4946743;29;20345;-78
2022/06/22 15:17:01;;;;;;;11.95;3.53;;;26.50;82.70;;;;;;4945238;29;20238;-78
2022/06/22 15:19:40;;;;;;;12.20;3.40;;;26.50;83.00;;;;;;4945516;29;20043;-77
2022/06/22 15:22:30;;;;;;;16.20;4.60;;;26.40;83.50;;;;;;4945434;29;20047;-78
2022/06/22 15:25:05;;;;;;;13.32;3.35;;;26.10;83.30;;;;;;4944380;29;20274;-78
2022/06/22 15:27:45;;;;;;;16.38;3.65;;;26.10;84.40;;;;;;4945359;29;20099;-78
2022/06/22 15:30:19;;;;;;;13.48;3.22;;;26.10;84.30;;;;;;4944836;29;20043;-79
2022/06/22 15:32:57;;;;;;;12.13;3.13;;;26.10;84.00;;;;;;4944574;29;20058;-78
2022/06/22 15:35:27;;;;;;;15.27;3.40;;;26.20;83.90;;;;;;4941909;29;20043;-78
2022/06/22 15:38:06;;;;;;;11.23;3.33;;;26.50;82.60;;;;;;4933155;29;20047;-79
2022/06/22 15:41:02;;;;;;;14.27;3.30;;;26.80;80.90;;;;;;4920354;29;20044;-79
2022/06/22 15:43:59;;;;;;;10.63;2.78;;;27.20;79.50;;;;;;4943493;29;20040;-79
2022/06/22 15:46:28;;;;;;;11.55;3.53;;;28.50;76.90;;;;;;4907782;29;20107;-79
2022/06/22 15:49:17;;;;;;;16.33;3.63;;;29.10;74.20;;;;;;4924947;29;20059;-78
2022/06/22 15:51:55;;;;;;;11.02;3.28;;;29.50;73.80;;;;;;4908277;29;20120;-77
2022/06/22 15:54:39;;;;;;;12.88;3.78;;;29.90;72.40;;;;;;4913572;29;20040;-77
2022/06/22 15:57:14;;;;;;;10.90;3.13;;;30.40;72.00;;;;;;4926956;29;20047;-77
2022/06/22 16:00:18;;;;;;;9.38;2.80;;;30.10;71.70;;;;;;4927667;29;20171;-78
2022/06/22 16:02:55;;;;;;;12.13;2.97;;;29.60;72.70;;;;;;4881597;29;20064;-78
2022/06/22 16:05:34;;;;;;;10.50;3.17;;;29.00;74.30;;;;;;4930740;29;20413;-79
2022/06/22 16:08:13;;;;;;;11.68;3.00;;;28.30;76.00;;;;;;4930339;29;20036;-78
2022/06/22 16:10:42;;;;;;;12.18;3.70;;;27.80;77.90;;;;;;4928832;29;20036;-78
2022/06/22 16:13:28;;;;;;;11.95;3.60;;;27.20;79.10;;;;;;4947006;29;20281;-77
2022/06/22 16:16:20;;;;;;;14.68;3.33;;;26.60;81.00;;;;;;4929056;29;20038;-77
2022/06/22 16:19:03;;;;;;;16.23;3.78;;;26.10;82.30;;;;;;4946603;29;20023;-78
2022/06/22 16:21:48;;;;;;;10.82;3.00;;;25.90;83.80;;;;;;4946735;29;20035;-78
2022/06/22 16:24:19;;;;;;;10.60;3.42;;;25.90;83.90;;;;;;4946967;29;20031;-78
2022/06/22 16:27:03;;;;;;;14.00;2.90;;;25.80;84.10;;;;;;4946479;29;20031;-79
2022/06/22 16:29:35;;;;;;;12.90;3.63;;;25.80;84.80;;;;;;4946955;29;20035;-78
2022/06/22 16:32:29;;;;;;;13.02;2.75;;;25.70;85.10;;;;;;4946198;29;20273;-79
2022/06/22 16:35:00;;;;;;;11.32;3.78;;;25.50;85.60;;;;;;4946069;29;20079;-78
2022/06/22 16:37:43;;;;;;;11.38;3.10;;;25.20;85.40;;;;;;4934287;29;20416;-79
2022/06/22 16:41:00;;;;;;;11.50;3.70;;;25.10;85.90;;;;;;4946614;29;20040;-79
2022/06/22 16:43:33;;;;;;;11.50;3.33;;;25.00;85.90;;;;;;4891141;29;20048;-78
2022/06/22 16:46:17;;;;;;;9.60;3.63;;;24.90;86.70;;;;;;4909688;29;20048;-78
2022/06/22 16:49:07;;;;;;;12.15;3.28;;;24.70;87.50;;;;;;4910017;29;20052;-78
2022/06/22 16:52:02;;;;;;;10.43;3.17;;;24.70;88.00;;;;;;4927001;29;20036;-79
2022/06/22 16:54:32;;;;;;;9.90;3.20;;;24.60;88.60;;;;;;4936937;29;20222;-77
2022/06/22 16:57:03;;;;;;;9.45;3.20;;;24.50;90.40;;;;;;4945901;29;20220;-78
2022/06/22 16:59:37;;;;;;;12.13;3.38;;;24.40;92.00;;;;;;4946303;29;20313;-78
2022/06/22 17:02:37;;;;;;;11.45;3.67;;;24.20;92.40;;;;;;4945486;29;20071;-76
2022/06/22 17:05:17;;;;;;;12.55;3.70;;;24.20;93.40;;;;;;4920327;29;20241;-78
2022/06/22 17:08:15;;;;;;;8.05;3.45;;;23.90;94.10;;;;;;4909452;29;20031;-76
2022/06/22 17:11:20;;;;;;;11.27;3.65;;;23.80;94.60;;;;;;4939540;29;20039;-77
2022/06/22 17:13:54;;;;;;;14.95;4.60;;;23.60;94.60;;;;;;4893838;29;20099;-76
2022/06/22 17:17:00;;;;;;;16.60;4.55;;;23.20;96.60;;;;;;4945344;29;20070;-78
2022/06/22 17:19:49;;;;;;;15.82;5.45;;;22.90;97.60;;;;;;4925427;29;20062;-77
2022/06/22 17:22:21;;;;;;;16.90;5.43;;;22.60;99.60;;;;;;4913256;29;20122;-77
2022/06/22 17:25:29;;;;;;;14.10;5.25;;;22.50;99.90;;;;;;4946701;29;20171;-77
2022/06/22 17:28:08;;;;;;;18.38;6.72;;;22.60;99.90;;;;;;4955539;29;20047;-80
2022/06/22 17:30:39;;;;;;;16.17;6.60;;;22.80;99.90;;;;;;4959493;29;20032;-76
2022/06/22 17:33:17;;;;;;;14.82;6.15;;;23.00;99.90;;;;;;4942654;29;20036;-79
2022/06/22 17:35:48;;;;;;;13.93;6.13;;;23.40;99.90;;;;;;4946829;29;20043;-78
2022/06/22 17:38:49;;;;;;;15.77;6.10;;;23.50;99.90;;;;;;4939438;29;20032;-79
2022/06/22 17:41:43;;;;;;;12.98;6.55;;;23.60;99.90;;;;;;4879189;29;20115;-81
2022/06/22 17:45:00;;;;;;;14.05;6.57;;;23.50;99.90;;;;;;4942662;29;20368;-79
2022/06/22 17:47:33;;;;;;;16.20;7.30;;;23.40;99.90;;;;;;4870231;29;20064;-79
2022/06/22 17:50:14;;;;;;;12.80;7.10;;;23.30;99.90;;;;;;4926102;29;20060;-80
2022/06/22 17:52:42;;;;;;;13.57;7.90;;;23.30;99.90;;;;;;4926177;29;20166;-80
2022/06/22 17:55:21;;;;;;;14.55;7.28;;;23.40;99.90;;;;;;4923758;29;20079;-79
2022/06/22 17:57:48;;;;;;;13.43;6.65;;;23.40;99.90;;;;;;4927621;29;20040;-80
2022/06/22 18:00:33;;;;;;;12.45;7.38;;;23.40;99.90;;;;;;4944461;29;20030;-79
2022/06/22 18:03:20;;;;;;;11.02;7.00;;;23.30;99.90;;;;;;4927456;29;20050;-80
2022/06/22 18:06:11;;;;;;;16.83;8.15;;;23.30;99.90;;;;;;4944663;29;20032;-80
2022/06/22 18:08:50;;;;;;;15.98;7.03;;;23.10;99.90;;;;;;4910040;29;20028;-80
2022/06/22 18:11:51;;;;;;;14.75;7.57;;;23.00;99.90;;;;;;4943657;29;20237;-80
2022/06/22 18:14:38;;;;;;;13.65;6.88;;;23.00;99.90;;;;;;4878708;29;20281;-79
2022/06/22 18:17:17;;;;;;;12.77;6.70;;;23.00;99.90;;;;;;4943930;29;20082;-80
2022/06/22 18:20:05;;;;;;;14.15;7.28;;;23.00;99.90;;;;;;4943842;29;20040;-79
2022/06/22 18:22:40;;;;;;;16.50;8.23;;;22.90;99.90;;;;;;4944723;29;20027;-80
2022/06/22 18:25:30;;;;;;;11.68;6.28;;;22.80;99.90;;;;;;4945331;29;20353;-81
2022/06/22 18:28:04;;;;;;;11.75;6.20;;;22.70;99.90;;;;;;4944623;29;20270;-80
2022/06/22 18:30:39;;;;;;;13.38;7.07;;;22.70;99.90;;;;;;4944166;29;20039;-80
2022/06/22 18:33:21;;;;;;;12.38;7.00;;;22.70;99.90;;;;;;4944692;29;20048;-81
2022/06/22 18:35:58;;;;;;;11.90;6.93;;;22.60;99.90;;;;;;4925104;29;20035;-80
2022/06/22 18:42:03;;;;;;;12.52;6.70;;;22.60;99.90;;;;;;4908854;29;20043;-84
2022/06/22 18:45:35;;;;;;;13.70;7.57;;;22.40;99.90;;;;;;4937845;29;20415;-81
2022/06/22 18:48:30;;;;;;;14.93;7.80;;;22.40;99.90;;;;;;4905238;29;20039;-84
2022/06/22 18:51:22;;;;;;;11.82;6.57;;;22.20;99.90;;;;;;4935022;29;20103;-82
2022/06/22 18:54:13;;;;;;;13.93;6.97;;;22.10;99.90;;;;;;4832891;29;20181;-84
2022/06/22 18:56:54;;;;;;;11.48;6.47;;;22.10;99.90;;;;;;4848316;29;20101;-83
2022/06/22 18:59:43;;;;;;;15.75;7.22;;;22.10;99.90;;;;;;4848391;29;20034;-82
2022/06/22 19:02:41;;;;;;;12.60;7.35;;;22.10;99.90;;;;;;4847488;29;20045;-82
2022/06/22 19:05:20;;;;;;;10.50;7.50;;;22.10;99.90;;;;;;4814620;29;20348;-82
2022/06/22 19:07:53;;;;;;;15.43;9.23;;;22.00;99.90;;;;;;4814683;29;20042;-82
2022/06/22 19:10:42;;;;;;;16.38;8.30;;;21.90;99.90;;;;;;4821384;29;20030;-82
2022/06/22 19:17:00;;;;;;;13.73;7.90;;;21.80;99.90;;;;;;4829110;29;20074;-83
2022/06/22 19:19:57;;;;;;;16.17;9.95;;;21.80;99.90;;;;;;4814821;29;20117;-82
2022/06/22 19:23:01;;;;;;;14.50;9.20;;;21.70;99.90;;;;;;4776020;30;20362;-83
2022/06/22 19:25:49;;;;;;;14.38;7.95;;;21.70;99.90;;;;;;4775789;30;20264;-83
2022/06/22 19:32:40;;;;;;;16.45;9.43;;;21.60;99.90;;;;;;4841966;29;20437;-83
2022/06/22 19:35:36;;;;;;;16.33;9.23;;;21.40;99.90;;;;;;4833709;29;20049;-83
2022/06/22 19:38:26;;;;;;;16.90;9.65;;;21.30;99.90;;;;;;4839883;29;20038;-84
2022/06/22 19:41:03;;;;;;;16.33;10.02;;;21.20;99.90;;;;;;4832485;29;20050;-84
2022/06/22 19:44:02;;;;;;;14.50;9.75;;;21.10;99.90;;;;;;4832867;29;20030;-84
2022/06/22 19:50:53;;;;;;;13.55;8.50;;;20.90;99.90;;;;;;4848241;29;20033;-84
2022/06/22 19:53:30;;;;;;;14.52;8.27;;;20.80;99.90;;;;;;4848512;29;20040;-83
2022/06/22 19:56:23;;;;;;;18.23;8.85;;;20.80;99.90;;;;;;4850498;29;20292;-84
2022/06/22 19:58:55;;;;;;;15.43;8.35;;;20.70;99.90;;;;;;4879516;29;20040;-84